Time;durP1;ratioP1;P1;durP2;ratioP2;P2;SDS_P1;SDS_P2;PMS_P1;PMS_P2;Temp;Humidity;BMP_temperature;BMP_pressure;BME280_temperature;BME280_humidity;BME280_pressure;Samples;Min_cycle;Max_cycle;Signal;HPM_P1;HPM_P2
2023/07/27 00:09:25;;;;;;;6.30;2.90;;;;;;;12.13;85.15;98135.70;435162;1256;108630;-42
2023/07/27 00:19:33;;;;;;;10.70;4.00;;;;;;;12.00;85.03;98131.42;434631;1257;675243;-42
2023/07/27 00:29:40;;;;;;;7.30;3.60;;;;;;;11.83;85.04;98141.19;435137;1256;111900;-41
2023/07/27 00:39:46;;;;;;;5.40;3.60;;;;;;;11.58;84.99;98144.00;435096;1256;109464;-42
2023/07/27 00:49:53;;;;;;;11.00;3.20;;;;;;;11.37;84.85;98152.34;435235;1256;99231;-42
2023/07/27 01:00:00;;;;;;;6.10;3.60;;;;;;;11.21;84.89;98158.48;435085;1254;108780;-41
2023/07/27 01:10:05;;;;;;;7.70;3.20;;;;;;;11.08;84.80;98162.81;434878;1256;99240;-42
2023/07/27 01:20:17;;;;;;;10.20;2.50;;;;;;;10.92;84.84;98155.91;435126;1252;110889;-43
2023/07/27 01:30:48;;;;;;;5.50;3.50;;;;;;;10.88;85.08;98164.11;435630;1256;107908;-42
2023/07/27 01:40:54;;;;;;;6.30;3.00;;;;;;;10.81;85.05;98167.40;434356;1254;99224;-45
2023/07/27 01:51:03;;;;;;;6.10;3.30;;;;;;;10.73;85.06;98173.56;434282;1259;106747;-42
2023/07/27 02:01:10;;;;;;;8.20;3.50;;;;;;;10.49;85.02;98164.05;434423;1259;98813;-42
2023/07/27 02:11:19;;;;;;;10.90;3.60;;;;;;;10.40;85.03;98169.78;434427;1259;110161;-42
2023/07/27 02:21:29;;;;;;;7.80;3.30;;;;;;;10.35;84.90;98187.98;434093;1255;107242;-41
2023/07/27 02:41:42;;;;;;;10.40;3.10;;;;;;;10.33;84.96;98205.53;434355;1256;107775;-42
2023/07/27 02:51:49;;;;;;;5.20;3.10;;;;;;;10.25;85.03;98217.66;434302;1259;99253;-42
2023/07/27 03:01:56;;;;;;;6.70;3.40;;;;;;;10.14;85.07;98231.08;434429;1253;110996;-41
2023/07/27 03:12:03;;;;;;;3.90;2.50;;;;;;;10.05;84.87;98239.20;434177;1259;108453;-42
2023/07/27 03:22:10;;;;;;;4.10;3.00;;;;;;;10.03;84.85;98236.61;434166;1259;99272;-41
2023/07/27 03:32:17;;;;;;;4.30;2.90;;;;;;;10.15;85.03;98235.91;434058;1259;107404;-41
2023/07/27 03:42:23;;;;;;;3.40;2.90;;;;;;;10.56;84.99;98242.12;434225;1259;99116;-41
2023/07/27 03:52:31;;;;;;;5.70;3.00;;;;;;;12.43;84.77;98241.90;434212;1255;111180;-42
2023/07/27 04:02:38;;;;;;;5.10;2.90;;;;;;;14.24;83.42;98244.48;434236;1259;108286;-41
2023/07/27 04:12:46;;;;;;;2.50;2.20;;;;;;;15.90;81.77;98243.06;434172;1253;98847;-41
2023/07/27 04:22:52;;;;;;;5.40;2.30;;;;;;;17.02;80.30;98251.67;434371;1259;108036;-42
2023/07/27 04:32:59;;;;;;;3.80;2.20;;;;;;;17.83;79.11;98255.80;434175;1259;99450;-42
2023/07/27 04:43:05;;;;;;;4.60;2.40;;;;;;;18.40;77.81;98259.85;434171;1259;112310;-41
2023/07/27 04:53:12;;;;;;;2.60;2.00;;;;;;;19.02;76.87;98255.76;434177;1259;107428;-42
2023/07/27 05:03:18;;;;;;;2.20;2.00;;;;;;;19.14;75.44;98258.98;434264;1253;98837;-41
2023/07/27 05:13:25;;;;;;;7.70;1.90;;;;;;;19.51;74.68;98265.06;434184;1259;109405;-41
2023/07/27 05:53:48;;;;;;;2.90;1.50;;;;;;;20.26;70.83;98284.71;434286;1256;99235;-40
2023/07/27 06:24:18;;;;;;;3.00;1.40;;;;;;;21.22;67.52;98287.55;434197;1258;112196;-40
2023/07/27 06:54:38;;;;;;;1.80;1.30;;;;;;;21.88;64.46;98279.90;434059;1260;108004;-42
2023/07/27 07:04:46;;;;;;;4.00;1.40;;;;;;;21.96;63.02;98281.19;434240;1259;98926;-42
2023/07/27 07:14:51;;;;;;;3.70;1.40;;;;;;;21.98;62.00;98293.13;434470;1260;112257;-43
2023/07/27 07:24:58;;;;;;;1.40;1.20;;;;;;;22.22;61.84;98294.27;434184;1259;108636;-41
2023/07/27 07:45:16;;;;;;;2.60;1.40;;;;;;;22.54;59.55;98293.53;434127;1259;110150;-41
2023/07/27 07:55:23;;;;;;;4.60;1.40;;;;;;;22.34;58.33;98293.46;434199;1258;99247;-41
2023/07/27 08:05:30;;;;;;;1.50;1.00;;;;;;;22.31;58.13;98291.52;434214;1260;113001;-42
2023/07/27 08:15:36;;;;;;;1.70;1.40;;;;;;;22.43;58.29;98294.55;434256;1259;107676;-42
2023/07/27 08:25:44;;;;;;;1.30;1.20;;;;;;;22.76;58.56;98287.83;434270;1265;99222;-42
2023/07/27 08:35:51;;;;;;;1.40;1.30;;;;;;;22.45;57.69;98283.84;434238;1258;108615;-41
2023/07/27 08:45:56;;;;;;;3.70;1.90;;;;;;;22.52;57.63;98284.92;434334;1254;98112;-42
2023/07/27 08:56:05;;;;;;;3.10;1.70;;;;;;;22.72;57.37;98277.03;434236;1259;112889;-42
2023/07/27 09:36:34;;;;;;;3.60;1.70;;;;;;;22.57;55.15;98272.95;434221;1253;99257;-42
2023/07/27 09:46:41;;;;;;;2.00;1.50;;;;;;;23.05;54.68;98262.39;434217;1259;111325;-43
2023/07/27 09:56:49;;;;;;;1.80;1.50;;;;;;;23.57;53.76;98249.86;434235;1260;107317;-42
2023/07/27 10:06:54;;;;;;;2.40;1.60;;;;;;;23.72;53.37;98247.05;434195;1260;99237;-42
2023/07/27 10:17:00;;;;;;;3.20;1.50;;;;;;;23.78;52.21;98243.39;434289;1267;109781;-43
2023/07/27 10:27:06;;;;;;;2.30;1.70;;;;;;;23.64;52.32;98235.31;434226;1255;99250;-43
2023/07/27 10:37:14;;;;;;;4.30;2.00;;;;;;;24.08;51.50;98228.29;434298;1267;109916;-43
2023/07/27 10:47:21;;;;;;;3.80;1.60;;;;;;;24.37;50.80;98216.79;434137;1260;108294;-42
2023/07/27 10:57:28;;;;;;;1.80;1.70;;;;;;;24.26;49.97;98213.04;434274;1254;99307;-42
2023/07/27 11:27:48;;;;;;;2.20;2.00;;;;;;;23.58;50.31;98184.27;434266;1255;111174;-40
2023/07/27 11:37:55;;;;;;;2.80;1.80;;;;;;;23.10;50.45;98182.83;434397;1254;106765;-41
2023/07/27 11:58:08;;;;;;;2.60;2.10;;;;;;;22.73;49.74;98154.56;434245;1254;108793;-44
2023/07/27 12:28:52;;;;;;;2.90;1.60;;;;;;;23.87;47.01;98127.02;434078;1254;108788;-43
2023/07/27 12:59:09;;;;;;;3.50;1.80;;;;;;;23.75;47.62;98099.65;434335;1254;99140;-49
2023/07/27 13:49:38;;;;;;;4.40;2.10;;;;;;;22.88;45.13;98079.15;434220;1254;97988;-44
2023/07/27 13:59:45;;;;;;;3.20;1.50;;;;;;;22.65;45.51;98073.07;434329;1260;112168;-42
2023/07/27 14:30:07;;;;;;;2.90;1.80;;;;;;;22.70;45.02;98049.70;434298;1259;109533;-43
2023/07/27 14:40:12;;;;;;;2.60;1.30;;;;;;;23.05;44.46;98045.11;434215;1258;99256;-42
2023/07/27 14:50:38;;;;;;;1.90;1.60;;;;;;;23.34;44.11;98040.29;434245;1254;112186;-43
2023/07/27 15:00:46;;;;;;;5.80;1.40;;;;;;;23.21;43.64;98030.71;434228;1257;107542;-43
2023/07/27 15:10:55;;;;;;;1.80;1.70;;;;;;;22.89;43.84;98021.76;434291;1259;98013;-42
2023/07/27 15:31:11;;;;;;;4.50;1.70;;;;;;;22.98;43.04;98024.98;434224;1253;99240;-42
2023/07/27 15:41:17;;;;;;;2.10;1.60;;;;;;;22.91;43.03;98017.30;434178;1258;111739;-45
2023/07/27 16:01:31;;;;;;;1.60;1.40;;;;;;;22.74;42.86;98004.11;434183;1254;99228;-41
2023/07/27 16:11:38;;;;;;;2.30;1.70;;;;;;;22.68;43.02;98000.63;434157;1253;109457;-41
2023/07/27 16:21:45;;;;;;;4.40;2.20;;;;;;;22.56;43.46;97999.61;434279;1253;99339;-41
2023/07/27 16:31:50;;;;;;;3.30;1.80;;;;;;;22.47;43.83;97990.17;434244;1257;111722;-40
2023/07/27 16:41:56;;;;;;;2.90;1.80;;;;;;;22.29;44.37;97987.79;434277;1254;108514;-42
2023/07/27 16:52:08;;;;;;;3.70;1.90;;;;;;;22.14;45.01;97980.93;434335;1256;99231;-43
2023/07/27 17:02:15;;;;;;;2.30;1.80;;;;;;;22.18;45.11;97984.80;434115;1253;107910;-43
2023/07/27 17:12:22;;;;;;;2.80;2.20;;;;;;;22.06;44.87;97980.67;434180;1254;99362;-42
2023/07/27 17:22:28;;;;;;;2.60;1.70;;;;;;;21.92;45.08;97979.67;434389;1259;113120;-43
2023/07/27 17:42:40;;;;;;;2.50;2.00;;;;;;;21.23;46.00;97982.70;434276;1254;99236;-43
2023/07/27 18:02:53;;;;;;;6.20;3.00;;;;;;;20.25;48.12;97984.09;434320;1258;99356;-42
2023/07/27 18:13:00;;;;;;;5.10;2.90;;;;;;;19.77;49.76;97986.70;434380;1258;112134;-42
2023/07/27 18:23:07;;;;;;;8.40;4.30;;;;;;;19.32;51.09;97983.81;434181;1254;108679;-42
2023/07/27 18:33:13;;;;;;;11.60;6.40;;;;;;;18.87;52.10;97981.59;434225;1253;99228;-42
2023/07/27 18:43:23;;;;;;;13.10;8.20;;;;;;;18.44;53.04;97977.11;434176;1253;107992;-42
2023/07/27 18:53:29;;;;;;;18.30;8.90;;;;;;;18.11;53.62;97979.58;434080;1259;99254;-46
2023/07/27 19:03:36;;;;;;;12.60;7.40;;;;;;;17.77;54.65;97976.66;434281;1259;112917;-42
2023/07/27 19:23:49;;;;;;;17.10;10.60;;;;;;;17.54;56.31;97978.33;434087;1259;99241;-43
2023/07/27 19:33:56;;;;;;;13.90;8.50;;;;;;;17.34;56.91;97989.05;434257;1254;108132;-42
2023/07/27 19:44:03;;;;;;;11.30;7.40;;;;;;;17.32;57.34;97984.58;434258;1254;99259;-42
2023/07/27 20:04:17;;;;;;;9.30;6.60;;;;;;;17.21;58.14;97958.48;434278;1254;107514;-41
2023/07/27 20:14:24;;;;;;;7.70;5.80;;;;;;;17.16;58.35;97957.11;434332;1254;99356;-42
2023/07/27 20:24:37;;;;;;;8.90;5.30;;;;;;;17.16;58.39;97954.55;434201;1257;110041;-43
2023/07/27 20:34:49;;;;;;;6.60;5.20;;;;;;;17.18;58.57;97960.23;434322;1256;99257;-43
2023/07/27 20:44:56;;;;;;;9.50;6.00;;;;;;;17.18;58.89;97951.64;434412;1253;110805;-43
2023/07/27 20:55:01;;;;;;;9.00;5.30;;;;;;;17.07;59.25;97933.30;434174;1255;108269;-43
2023/07/27 21:15:15;;;;;;;15.00;6.30;;;;;;;16.83;59.92;97920.17;434416;1258;107924;-42
2023/07/27 21:25:22;;;;;;;12.80;6.10;;;;;;;16.78;60.24;97910.52;434160;1259;98026;-42
2023/07/27 21:35:28;;;;;;;7.40;4.30;;;;;;;16.75;60.49;97907.45;434264;1257;112104;-42
2023/07/27 21:45:36;;;;;;;5.20;4.50;;;;;;;16.75;60.68;97898.05;434241;1253;108346;-41
2023/07/27 22:26:01;;;;;;;9.10;5.10;;;;;;;16.51;61.96;97874.57;434214;1257;110813;-42
2023/07/27 22:36:08;;;;;;;7.40;5.80;;;;;;;16.60;62.04;97854.30;434214;1258;108955;-41
2023/07/27 22:46:16;;;;;;;10.30;5.80;;;;;;;16.56;62.39;97840.41;434322;1258;98718;-41
2023/07/27 22:56:23;;;;;;;9.30;5.10;;;;;;;16.54;62.56;97833.48;434339;1258;109939;-41
2023/07/27 23:16:37;;;;;;;10.70;5.20;;;;;;;16.43;62.72;97815.38;434204;1257;111965;-42
2023/07/27 23:26:43;;;;;;;8.60;5.00;;;;;;;16.46;62.88;97814.17;434145;1259;106895;-42
2023/07/27 23:46:53;;;;;;;6.80;4.50;;;;;;;16.46;63.06;97808.36;434344;1258;107396;-42
2023/07/27 23:57:01;;;;;;;5.90;4.40;;;;;;;16.39;63.10;97790.59;434272;1256;99230;-43
